createdAt,value
2017-03-05T00:00:15.739Z,996.2
2017-03-05T00:02:21.093Z,996.2
2017-03-05T00:03:24.136Z,996.2
2017-03-05T00:04:26.582Z,996.2
2017-03-05T00:05:29.044Z,996.2
2017-03-05T00:06:31.990Z,996.2
2017-03-05T00:07:34.438Z,996.3
2017-03-05T00:08:37.635Z,996.2
2017-03-05T00:09:40.088Z,996.3
2017-03-05T00:10:42.530Z,996.3
2017-03-05T00:12:47.934Z,996.3
2017-03-05T00:13:50.640Z,996.2
2017-03-05T00:14:53.114Z,996.2
2017-03-05T00:15:56.069Z,996.3
2017-03-05T00:16:58.546Z,996.3
2017-03-05T00:18:00.997Z,996.3
2017-03-05T00:19:04.251Z,996.3
2017-03-05T00:20:06.547Z,996.4
2017-03-05T00:21:08.992Z,996.6
2017-03-05T00:22:11.942Z,996.7
2017-03-05T00:23:14.223Z,996.7
2017-03-05T00:24:17.484Z,996.6
2017-03-05T00:25:19.780Z,996.6
2017-03-05T00:26:22.236Z,996.6
2017-03-05T00:27:25.030Z,996.5
2017-03-05T00:28:27.979Z,996.6
2017-03-05T00:29:30.713Z,996.6
2017-03-05T00:30:33.195Z,996.7
2017-03-05T00:31:35.665Z,996.7
2017-03-05T00:32:38.617Z,996.7
2017-03-05T00:33:41.079Z,996.7
2017-03-05T00:34:43.786Z,996.7
2017-03-05T00:35:46.231Z,996.8
2017-03-05T00:36:49.179Z,996.9
2017-03-05T00:37:51.629Z,996.9
2017-03-05T00:38:54.090Z,997
2017-03-05T00:39:57.355Z,997
2017-03-05T00:40:59.805Z,997.1
2017-03-05T00:42:02.258Z,997.1
2017-03-05T00:43:04.728Z,997.3
2017-03-05T00:44:07.673Z,997.3
2017-03-05T00:45:10.420Z,997.3
2017-03-05T00:46:12.706Z,997.3
2017-03-05T00:47:15.676Z,997.3
2017-03-05T00:48:17.982Z,997.3
2017-03-05T00:49:20.951Z,997.3
2017-03-05T00:50:23.657Z,997.2
2017-03-05T00:51:26.124Z,997.2
2017-03-05T00:52:28.582Z,997.2
2017-03-05T00:53:31.384Z,997.2
2017-03-05T00:54:34.208Z,997.3
2017-03-05T00:55:36.918Z,997.3
2017-03-05T00:56:39.387Z,997.3
2017-03-05T00:57:41.836Z,997.3
2017-03-05T00:58:44.843Z,997.3
2017-03-05T00:59:47.302Z,997.3
2017-03-05T01:00:50.022Z,997.3
2017-03-05T01:01:52.473Z,997.3
2017-03-05T01:02:55.073Z,997.4
2017-03-05T01:03:58.034Z,997.4
2017-03-05T01:05:00.512Z,997.4
2017-03-05T01:06:03.716Z,997.5
2017-03-05T01:07:05.667Z,997.5
2017-03-05T01:08:08.621Z,997.5
2017-03-05T01:09:11.085Z,997.4
2017-03-05T01:10:14.039Z,997.5
2017-03-05T01:11:16.753Z,997.5
2017-03-05T01:12:19.070Z,997.5
2017-03-05T01:13:22.033Z,997.4
2017-03-05T01:14:24.318Z,997.5
2017-03-05T01:15:27.269Z,997.5
2017-03-05T01:16:29.970Z,997.5
2017-03-05T01:17:32.450Z,997.6
2017-03-05T01:18:34.900Z,997.6
2017-03-05T01:19:37.878Z,997.6
2017-03-05T01:20:40.344Z,997.7
2017-03-05T01:21:43.062Z,997.7
2017-03-05T01:23:48.419Z,997.7
2017-03-05T01:24:50.898Z,997.7
2017-03-05T01:25:53.544Z,997.7
2017-03-05T01:26:56.301Z,997.6
2017-03-05T01:27:58.758Z,997.6
2017-03-05T01:29:01.714Z,997.6
2017-03-05T01:30:04.203Z,997.6
2017-03-05T01:31:06.665Z,997.6
2017-03-05T01:32:09.897Z,997.7
2017-03-05T01:34:14.589Z,997.7
2017-03-05T01:35:17.233Z,997.7
2017-03-05T01:36:19.852Z,997.8
2017-03-05T01:37:22.952Z,997.7
2017-03-05T01:38:25.406Z,997.8
2017-03-05T01:39:27.852Z,997.8
2017-03-05T01:40:30.837Z,997.8
2017-03-05T01:41:33.283Z,997.8
2017-03-05T01:42:35.985Z,998
2017-03-05T01:43:38.477Z,998
2017-03-05T01:44:41.291Z,998
2017-03-05T01:45:43.744Z,998
2017-03-05T01:46:46.698Z,998
2017-03-05T01:47:49.246Z,998
2017-03-05T01:48:52.031Z,998
2017-03-05T01:49:54.493Z,998.1
2017-03-05T01:50:56.964Z,998
2017-03-05T01:51:59.917Z,998
2017-03-05T01:53:02.624Z,998
2017-03-05T01:54:05.081Z,998.1
2017-03-05T01:56:10.273Z,998
2017-03-05T01:58:15.932Z,998.1
2017-03-05T01:59:18.376Z,998
2017-03-05T02:00:20.673Z,998
2017-03-05T02:01:23.636Z,998
2017-03-05T02:02:26.090Z,998
2017-03-05T02:03:29.172Z,998
2017-03-05T02:04:31.621Z,998
2017-03-05T02:05:34.080Z,998.1
2017-03-05T02:06:36.546Z,998.1
2017-03-05T02:07:39.490Z,998.1
2017-03-05T02:08:42.198Z,998
2017-03-05T02:09:44.645Z,998.2
2017-03-05T02:10:47.603Z,998.1
2017-03-05T02:11:50.068Z,998.1
2017-03-05T02:12:52.523Z,998.1
2017-03-05T02:13:55.790Z,998.1
2017-03-05T02:14:57.733Z,998.1
2017-03-05T02:16:00.734Z,998.1
2017-03-05T02:17:03.185Z,998.2
2017-03-05T02:18:06.137Z,998.2
2017-03-05T02:19:08.848Z,998.2
2017-03-05T02:20:11.324Z,998.2
2017-03-05T02:21:13.800Z,998.2
2017-03-05T02:22:16.256Z,998.2
2017-03-05T02:23:18.935Z,998.2
2017-03-05T02:24:22.153Z,998.2
2017-03-05T02:25:24.616Z,998.2
2017-03-05T02:26:27.100Z,998.2
2017-03-05T02:27:29.557Z,998.3
2017-03-05T02:28:32.342Z,998.2
2017-03-05T02:29:35.043Z,998.1
2017-03-05T02:30:37.495Z,998.3
2017-03-05T02:31:40.450Z,998.2
2017-03-05T02:32:42.899Z,998.2
2017-03-05T02:33:45.360Z,998.2
2017-03-05T02:34:48.640Z,998.2
2017-03-05T02:35:50.583Z,998.2
2017-03-05T02:36:53.568Z,998.1
2017-03-05T02:37:56.015Z,998.2
2017-03-05T02:38:58.518Z,998.2
2017-03-05T02:40:01.732Z,998.2
2017-03-05T02:41:04.202Z,998.2
2017-03-05T02:42:06.649Z,998.2
2017-03-05T02:43:09.096Z,998.2
2017-03-05T02:44:12.048Z,998.2
2017-03-05T02:45:14.765Z,998.2
2017-03-05T02:46:17.212Z,998.2
2017-03-05T02:47:19.825Z,998.3
2017-03-05T02:48:22.274Z,998.3
2017-03-05T02:49:25.224Z,998.3
2017-03-05T02:50:28.264Z,998.3
2017-03-05T02:51:30.216Z,998.3
2017-03-05T02:52:33.191Z,998.4
2017-03-05T02:53:35.685Z,998.4
2017-03-05T02:54:38.134Z,998.4
2017-03-05T02:55:41.359Z,998.3
2017-03-05T02:56:43.803Z,998.3
2017-03-05T02:57:46.245Z,998.3
2017-03-05T02:58:48.699Z,998.4
2017-03-05T02:59:51.621Z,998.4
2017-03-05T03:00:54.320Z,998.4
2017-03-05T03:01:56.771Z,998.3
2017-03-05T03:02:59.227Z,998.3
2017-03-05T03:04:02.190Z,998.3
2017-03-05T03:05:04.690Z,998.3
2017-03-05T03:06:07.404Z,998.2
2017-03-05T03:07:09.854Z,998.3
2017-03-05T03:08:12.803Z,998.3
2017-03-05T03:09:15.085Z,998.3
2017-03-05T03:10:18.042Z,998.4
2017-03-05T03:11:20.575Z,998.4
2017-03-05T03:12:23.114Z,998.4
2017-03-05T03:13:26.067Z,998.4
2017-03-05T03:14:28.352Z,998.5
2017-03-05T03:15:31.205Z,998.4
2017-03-05T03:16:33.912Z,998.5
2017-03-05T03:17:36.383Z,998.5
2017-03-05T03:18:38.838Z,998.5
2017-03-05T03:19:41.827Z,998.5
2017-03-05T03:20:44.277Z,998.5
2017-03-05T03:21:47.364Z,998.6
2017-03-05T03:22:49.813Z,998.5
2017-03-05T03:23:52.289Z,998.6
2017-03-05T03:24:54.742Z,998.6
2017-03-05T03:25:57.706Z,998.6
2017-03-05T03:27:00.290Z,998.6
2017-03-05T03:28:02.744Z,998.7
2017-03-05T03:29:05.194Z,998.6
2017-03-05T03:30:08.152Z,998.7
2017-03-05T03:31:10.440Z,998.7
2017-03-05T03:32:13.716Z,998.7
2017-03-05T03:33:16.170Z,998.7
2017-03-05T03:34:18.643Z,998.8
2017-03-05T03:36:23.834Z,998.8
2017-03-05T03:37:26.586Z,998.8
2017-03-05T03:38:29.366Z,998.8
2017-03-05T03:39:31.824Z,998.8
2017-03-05T03:40:34.277Z,998.8
2017-03-05T03:41:37.244Z,998.8
2017-03-05T03:42:40.009Z,998.7
2017-03-05T03:43:42.469Z,998.8
2017-03-05T03:44:44.924Z,998.7
2017-03-05T03:45:47.369Z,998.7
2017-03-05T03:46:50.336Z,998.7
2017-03-05T03:47:53.057Z,998.8
2017-03-05T03:48:55.504Z,998.8
2017-03-05T03:49:57.959Z,998.8
2017-03-05T03:51:00.905Z,998.8
2017-03-05T03:53:06.016Z,998.8
2017-03-05T03:54:08.459Z,998.8
2017-03-05T03:55:11.412Z,998.8
2017-03-05T03:56:13.856Z,998.8
2017-03-05T03:57:16.308Z,998.8
2017-03-05T03:58:19.578Z,998.9
2017-03-05T03:59:22.041Z,998.9
2017-03-05T04:00:24.319Z,998.9
2017-03-05T04:01:27.099Z,998.9
2017-03-05T04:02:29.545Z,998.9
2017-03-05T04:03:32.797Z,998.9
2017-03-05T04:04:34.773Z,998.9
2017-03-05T04:05:37.734Z,999
2017-03-05T04:06:40.195Z,999
2017-03-05T04:07:42.769Z,998.9
2017-03-05T04:08:46.037Z,999
2017-03-05T04:09:47.995Z,999
2017-03-05T04:10:50.959Z,999.1
2017-03-05T04:12:55.812Z,999.1
2017-03-05T04:13:59.025Z,999.2
2017-03-05T04:15:01.511Z,999.2
2017-03-05T04:16:03.961Z,999.3
2017-03-05T04:17:06.406Z,999.3
2017-03-05T04:18:09.367Z,999.3
2017-03-05T04:19:12.101Z,999.3
2017-03-05T04:21:16.980Z,999.3
2017-03-05T04:22:19.769Z,999.4
2017-03-05T04:23:22.215Z,999.4
2017-03-05T04:24:25.419Z,999.4
2017-03-05T04:25:27.388Z,999.5
2017-03-05T04:26:30.349Z,999.5
2017-03-05T04:27:32.810Z,999.6
2017-03-05T04:28:35.257Z,999.6
2017-03-05T04:29:38.459Z,999.6
2017-03-05T04:30:40.913Z,999.6
2017-03-05T04:31:43.358Z,999.7
2017-03-05T04:32:45.801Z,999.7
2017-03-05T04:33:48.759Z,999.7
2017-03-05T04:34:51.412Z,999.7
2017-03-05T04:35:53.902Z,999.7
2017-03-05T04:36:56.349Z,999.7
2017-03-05T04:37:59.305Z,999.8
2017-03-05T04:39:01.980Z,999.8
2017-03-05T04:40:04.726Z,999.8
2017-03-05T04:41:07.013Z,999.8
2017-03-05T04:42:09.970Z,999.8
2017-03-05T04:44:14.854Z,999.7
2017-03-05T04:45:18.075Z,999.8
2017-03-05T04:46:20.374Z,999.8
2017-03-05T04:47:22.832Z,999.8
2017-03-05T04:48:25.789Z,999.8
2017-03-05T04:49:28.071Z,999.8
2017-03-05T04:50:31.322Z,999.8
2017-03-05T04:51:33.272Z,999.9
2017-03-05T04:52:36.233Z,999.9
2017-03-05T04:54:41.589Z,1000
2017-03-05T04:55:44.311Z,1000
2017-03-05T04:56:46.766Z,1000.1
2017-03-05T04:58:51.648Z,1000.1
2017-03-05T04:59:54.608Z,1000.1
2017-03-05T05:00:57.368Z,1000.1
2017-03-05T05:01:59.810Z,1000.1
2017-03-05T05:03:02.260Z,1000.1
2017-03-05T05:04:05.224Z,1000.2
2017-03-05T05:05:07.511Z,1000.2
2017-03-05T05:06:10.559Z,1000.2
2017-03-05T05:07:13.014Z,1000.2
2017-03-05T05:08:15.461Z,1000.3
2017-03-05T05:09:18.409Z,1000.3
2017-03-05T05:10:20.864Z,1000.2
2017-03-05T05:11:23.561Z,1000.2
2017-03-05T05:12:26.008Z,1000.2
2017-03-05T05:13:28.793Z,1000.3
2017-03-05T05:14:31.247Z,1000.3
2017-03-05T05:15:34.201Z,1000.3
2017-03-05T05:16:36.919Z,1000.3
2017-03-05T05:17:39.366Z,1000.3
2017-03-05T05:18:41.820Z,1000.4
2017-03-05T05:19:44.774Z,1000.4
2017-03-05T05:20:47.252Z,1000.4
2017-03-05T05:21:49.991Z,1000.5
2017-03-05T05:22:52.442Z,1000.4
2017-03-05T05:23:54.904Z,1000.4
2017-03-05T05:24:57.853Z,1000.5
2017-03-05T05:26:00.297Z,1000.4
2017-03-05T05:28:05.908Z,1000.5
2017-03-05T05:29:08.185Z,1000.5
2017-03-05T05:30:11.142Z,1000.6
2017-03-05T05:31:13.609Z,1000.6
2017-03-05T05:32:16.059Z,1000.6
2017-03-05T05:33:19.106Z,1000.6
2017-03-05T05:34:21.548Z,1000.7
2017-03-05T05:35:24.003Z,1000.6
2017-03-05T05:36:26.813Z,1000.6
2017-03-05T05:37:29.621Z,1000.7
2017-03-05T05:38:32.372Z,1000.7
2017-03-05T05:39:34.837Z,1000.7
2017-03-05T05:40:37.331Z,1000.8
2017-03-05T05:41:40.140Z,1000.8
2017-03-05T05:42:42.588Z,1000.8
2017-03-05T05:43:45.291Z,1000.8
2017-03-05T05:44:47.742Z,1000.8
2017-03-05T05:45:50.706Z,1000.8
2017-03-05T05:46:53.150Z,1000.8
2017-03-05T05:47:55.601Z,1000.8
2017-03-05T05:48:58.808Z,1000.8
2017-03-05T05:50:01.101Z,1000.8
2017-03-05T05:51:03.550Z,1000.9
2017-03-05T05:52:06.506Z,1000.9
2017-03-05T05:53:08.949Z,1001
2017-03-05T05:54:11.702Z,1000.9
2017-03-05T05:55:14.309Z,1001
2017-03-05T05:56:16.774Z,1001.1
2017-03-05T05:57:19.232Z,1001
2017-03-05T05:59:25.175Z,1001.2
2017-03-05T06:00:27.130Z,1001.2
2017-03-05T06:01:30.081Z,1001.2
2017-03-05T06:02:32.537Z,1001.3
2017-03-05T06:03:35.487Z,1001.2
2017-03-05T06:04:38.209Z,1001.3
2017-03-05T06:05:40.652Z,1001.3
2017-03-05T06:06:43.116Z,1001.3
2017-03-05T06:07:45.569Z,1001.4
2017-03-05T06:08:48.522Z,1001.4
2017-03-05T06:09:51.236Z,1001.4
2017-03-05T06:10:53.688Z,1001.4
2017-03-05T06:11:56.146Z,1001.5
2017-03-05T06:12:59.116Z,1001.5
2017-03-05T06:14:01.563Z,1001.5
2017-03-05T06:15:04.267Z,1001.5
2017-03-05T06:16:06.723Z,1001.5
2017-03-05T06:17:09.676Z,1001.5
2017-03-05T06:18:12.144Z,1001.5
2017-03-05T06:19:14.618Z,1001.5
2017-03-05T06:20:17.817Z,1001.6
2017-03-05T06:21:20.109Z,1001.6
2017-03-05T06:22:22.564Z,1001.8
2017-03-05T06:23:25.514Z,1001.7
2017-03-05T06:24:27.806Z,1001.7
2017-03-05T06:25:31.030Z,1001.7
2017-03-05T06:26:33.313Z,1001.7
2017-03-05T06:27:35.817Z,1001.7
2017-03-05T06:28:38.267Z,1001.8
2017-03-05T06:29:41.220Z,1001.9
2017-03-05T06:30:43.954Z,1001.9
2017-03-05T06:31:46.398Z,1001.8
2017-03-05T06:32:48.845Z,1002
2017-03-05T06:33:51.798Z,1001.9
2017-03-05T06:34:54.256Z,1002
2017-03-05T06:35:56.990Z,1002
2017-03-05T06:36:59.436Z,1002
2017-03-05T06:38:02.383Z,1002
2017-03-05T06:39:04.833Z,1002
2017-03-05T06:40:07.279Z,1002.1
2017-03-05T06:41:10.316Z,1002
2017-03-05T06:42:12.759Z,1002
2017-03-05T06:43:15.214Z,1002.1
2017-03-05T06:45:20.573Z,1002.2
2017-03-05T06:46:23.330Z,1002.2
2017-03-05T06:47:25.788Z,1002.2
2017-03-05T06:48:28.244Z,1002.3
2017-03-05T06:50:33.608Z,1002.3
2017-03-05T06:51:36.662Z,1002.3
2017-03-05T06:52:39.115Z,1002.4
2017-03-05T06:53:41.575Z,1002.4
2017-03-05T06:54:44.523Z,1002.5
2017-03-05T06:55:46.974Z,1002.5
2017-03-05T06:56:49.684Z,1002.6
2017-03-05T06:57:52.144Z,1002.6
2017-03-05T06:59:57.502Z,1002.6
2017-03-05T07:00:59.944Z,1002.7
2017-03-05T07:03:05.549Z,1002.7
2017-03-05T07:04:08.016Z,1002.7
2017-03-05T07:05:10.801Z,1002.8
2017-03-05T07:06:13.262Z,1002.7
2017-03-05T07:07:15.712Z,1002.8
2017-03-05T07:08:18.909Z,1002.8
2017-03-05T07:09:21.221Z,1002.8
2017-03-05T07:10:23.666Z,1002.8
2017-03-05T07:11:26.630Z,1002.9
2017-03-05T07:12:29.091Z,1002.9
2017-03-05T07:13:31.842Z,1002.9
2017-03-05T07:14:34.299Z,1002.9
2017-03-05T07:15:36.747Z,1002.8
2017-03-05T07:16:39.715Z,1002.9
2017-03-05T07:17:42.194Z,1002.9
2017-03-05T07:18:44.897Z,1003
2017-03-05T07:19:47.371Z,1002.9
2017-03-05T07:20:50.328Z,1003
2017-03-05T07:21:52.793Z,1003
2017-03-05T07:22:55.237Z,1003.1
2017-03-05T07:23:58.467Z,1003
2017-03-05T07:26:03.361Z,1003.1
2017-03-05T07:27:05.806Z,1003.2
2017-03-05T07:28:08.764Z,1003.1
2017-03-05T07:29:11.359Z,1003.1
2017-03-05T07:30:13.837Z,1003.1
2017-03-05T07:31:16.280Z,1003.2
2017-03-05T07:32:19.076Z,1003.2
2017-03-05T07:33:21.691Z,1003.3
2017-03-05T07:34:24.744Z,1003.2
2017-03-05T07:35:26.732Z,1003.3
2017-03-05T07:36:29.528Z,1003.2
2017-03-05T07:37:32.485Z,1003.3
2017-03-05T07:38:34.932Z,1003.3
2017-03-05T07:39:37.684Z,1003.3
2017-03-05T07:40:40.129Z,1003.5
2017-03-05T07:41:42.589Z,1003.4
2017-03-05T07:42:45.542Z,1003.4
2017-03-05T07:43:47.990Z,1003.5
2017-03-05T07:44:50.775Z,1003.5
2017-03-05T07:45:53.230Z,1003.5
2017-03-05T07:46:55.683Z,1003.5
2017-03-05T07:47:58.633Z,1003.5
2017-03-05T07:49:01.107Z,1003.5
2017-03-05T07:50:04.312Z,1003.5
2017-03-05T07:51:06.273Z,1003.6
2017-03-05T07:52:09.235Z,1003.5
2017-03-05T07:53:11.689Z,1003.5
2017-03-05T07:54:14.168Z,1003.5
2017-03-05T07:55:17.372Z,1003.5
2017-03-05T07:56:19.825Z,1003.6
2017-03-05T07:58:25.018Z,1003.6
2017-03-05T07:59:27.479Z,1003.5
2017-03-05T08:00:30.196Z,1003.5
2017-03-05T08:01:32.661Z,1003.5
2017-03-05T08:02:35.626Z,1003.6
2017-03-05T08:03:38.090Z,1003.5
2017-03-05T08:04:40.543Z,1003.5
2017-03-05T08:05:43.829Z,1003.5
2017-03-05T08:06:45.779Z,1003.5
2017-03-05T08:07:48.728Z,1003.6
2017-03-05T08:09:53.588Z,1003.5
2017-03-05T08:10:56.844Z,1003.5
2017-03-05T08:11:59.163Z,1003.6
2017-03-05T08:13:01.610Z,1003.6
2017-03-05T08:14:04.562Z,1003.6
2017-03-05T08:15:07.008Z,1003.6
2017-03-05T08:16:09.707Z,1003.6
2017-03-05T08:17:12.162Z,1003.6
2017-03-05T08:18:15.124Z,1003.6
2017-03-05T08:19:17.590Z,1003.6
2017-03-05T08:20:20.049Z,1003.6
2017-03-05T08:21:23.274Z,1003.6
2017-03-05T08:22:25.219Z,1003.7
2017-03-05T08:23:28.179Z,1003.7
2017-03-05T08:24:30.626Z,1003.6
2017-03-05T08:25:33.580Z,1003.6
2017-03-05T08:26:36.289Z,1003.6
2017-03-05T08:27:38.572Z,1003.7
2017-03-05T08:28:41.530Z,1003.7
2017-03-05T08:29:43.992Z,1003.7
2017-03-05T08:30:46.463Z,1003.6
2017-03-05T08:31:49.686Z,1003.6
2017-03-05T08:33:54.584Z,1003.6
2017-03-05T08:34:57.059Z,1003.7
2017-03-05T08:35:59.843Z,1003.7
2017-03-05T08:37:02.541Z,1003.7
2017-03-05T08:38:04.989Z,1003.7
2017-03-05T08:39:07.785Z,1003.6
2017-03-05T08:40:10.234Z,1003.6
2017-03-05T08:41:13.188Z,1003.7
2017-03-05T08:42:15.889Z,1003.7
2017-03-05T08:43:18.333Z,1003.7
2017-03-05T08:44:20.791Z,1003.7
2017-03-05T08:45:23.757Z,1003.7
2017-03-05T08:46:26.203Z,1003.7
2017-03-05T08:47:28.955Z,1003.7
2017-03-05T08:48:31.434Z,1003.7
2017-03-05T08:49:33.883Z,1003.6
2017-03-05T08:50:36.844Z,1003.7
2017-03-05T08:51:39.294Z,1003.7
2017-03-05T08:52:42.384Z,1003.7
2017-03-05T08:53:44.830Z,1003.7
2017-03-05T08:54:47.276Z,1003.7
2017-03-05T08:55:50.060Z,1003.7
2017-03-05T08:56:52.537Z,1003.7
2017-03-05T08:57:55.240Z,1003.7
2017-03-05T08:58:57.703Z,1003.7
2017-03-05T09:00:00.681Z,1003.7
2017-03-05T09:01:03.137Z,1003.7
2017-03-05T09:02:05.612Z,1003.6
2017-03-05T09:03:08.822Z,1003.7
2017-03-05T09:04:11.121Z,1003.7
2017-03-05T09:05:13.904Z,1003.7
2017-03-05T09:06:16.382Z,1003.7
2017-03-05T09:07:18.829Z,1003.7
2017-03-05T09:08:22.093Z,1003.7
2017-03-05T09:09:24.567Z,1003.7
2017-03-05T09:10:27.012Z,1003.7
2017-03-05T09:11:29.462Z,1003.7
2017-03-05T09:12:32.248Z,1003.7
2017-03-05T09:13:34.950Z,1003.7
2017-03-05T09:14:37.402Z,1003.6
2017-03-05T09:15:40.359Z,1003.6
2017-03-05T09:16:42.826Z,1003.6
2017-03-05T09:17:45.271Z,1003.6
2017-03-05T09:18:48.518Z,1003.6
2017-03-05T09:19:50.961Z,1003.6
2017-03-05T09:20:53.420Z,1003.7
2017-03-05T09:21:55.869Z,1003.6
2017-03-05T09:22:58.853Z,1003.6
2017-03-05T09:24:01.560Z,1003.6
2017-03-05T09:25:04.023Z,1003.6
2017-03-05T09:26:06.488Z,1003.6
2017-03-05T09:27:09.277Z,1003.5
2017-03-05T09:28:12.250Z,1003.6
2017-03-05T09:29:14.846Z,1003.6
2017-03-05T09:30:17.308Z,1003.5
2017-03-05T09:31:19.763Z,1003.6
2017-03-05T09:32:22.715Z,1003.6
2017-03-05T09:33:25.175Z,1003.7
2017-03-05T09:34:28.453Z,1003.7
2017-03-05T09:35:30.739Z,1003.6
2017-03-05T09:37:36.120Z,1003.7
2017-03-05T09:38:38.569Z,1003.6
2017-03-05T09:39:41.287Z,1003.6
2017-03-05T09:40:43.743Z,1003.6
2017-03-05T09:41:46.693Z,1003.6
2017-03-05T09:42:49.138Z,1003.7
2017-03-05T09:43:52.090Z,1003.7
2017-03-05T09:44:56.204Z,1003.6
2017-03-05T09:45:56.989Z,1003.7
2017-03-05T09:46:59.966Z,1003.7
2017-03-05T09:48:02.408Z,1003.7
2017-03-05T09:49:05.387Z,1003.7
2017-03-05T09:50:07.918Z,1003.7
2017-03-05T09:51:10.742Z,1003.7
2017-03-05T09:52:13.212Z,1003.7
2017-03-05T09:53:15.665Z,1003.7
2017-03-05T09:55:21.622Z,1003.6
2017-03-05T09:56:23.587Z,1003.7
2017-03-05T09:57:26.538Z,1003.7
2017-03-05T09:58:28.985Z,1003.7
2017-03-05T09:59:31.953Z,1003.7
2017-03-05T10:00:34.651Z,1003.6
2017-03-05T10:01:37.098Z,1003.6
2017-03-05T10:02:39.574Z,1003.6
2017-03-05T10:03:42.527Z,1003.6
2017-03-05T10:04:44.974Z,1003.6
2017-03-05T10:05:48.178Z,1003.6
2017-03-05T10:06:50.627Z,1003.6
2017-03-05T10:07:53.106Z,1003.7
2017-03-05T10:08:55.890Z,1003.7
2017-03-05T10:09:58.335Z,1003.7
2017-03-05T10:11:01.130Z,1003.7
2017-03-05T10:12:03.582Z,1003.6
2017-03-05T10:13:06.565Z,1003.6
2017-03-05T10:14:09.058Z,1003.7
2017-03-05T10:15:12.012Z,1003.7
2017-03-05T10:16:14.540Z,1003.6
2017-03-05T10:17:17.330Z,1003.7
2017-03-05T10:18:19.812Z,1003.7
2017-03-05T10:19:22.284Z,1003.7
2017-03-05T10:20:25.153Z,1003.6
2017-03-05T10:21:27.861Z,1003.7
2017-03-05T10:22:30.313Z,1003.7
2017-03-05T10:23:33.271Z,1003.7
2017-03-05T10:24:35.774Z,1003.7
2017-03-05T10:25:38.740Z,1003.8
2017-03-05T10:26:41.496Z,1003.7
2017-03-05T10:27:43.944Z,1003.7
2017-03-05T10:28:46.416Z,1003.7
2017-03-05T10:29:49.388Z,1003.7
2017-03-05T10:30:51.859Z,1003.7
2017-03-05T10:31:54.630Z,1003.8
2017-03-05T10:32:57.077Z,1003.7
2017-03-05T10:34:00.025Z,1003.7
2017-03-05T10:35:02.501Z,1003.8
2017-03-05T10:36:04.971Z,1003.7
2017-03-05T10:37:08.227Z,1003.7
2017-03-05T10:38:10.679Z,1003.7
2017-03-05T10:39:13.138Z,1003.8
2017-03-05T10:40:15.944Z,1003.7
2017-03-05T10:41:18.417Z,1003.7
2017-03-05T10:43:24.029Z,1003.7
2017-03-05T10:44:26.488Z,1003.7
2017-03-05T10:45:29.465Z,1003.7
2017-03-05T10:46:31.947Z,1003.7
2017-03-05T10:47:34.410Z,1003.7
2017-03-05T10:48:37.665Z,1003.7
2017-03-05T10:49:40.106Z,1003.7
2017-03-05T10:50:42.556Z,1003.7
2017-03-05T10:51:45.352Z,1003.7
2017-03-05T10:52:47.807Z,1003.8
2017-03-05T10:53:51.009Z,1003.8
2017-03-05T10:54:53.484Z,1003.7
2017-03-05T10:55:55.931Z,1003.8
2017-03-05T10:56:58.909Z,1003.7
2017-03-05T10:58:01.365Z,1003.7
2017-03-05T10:59:04.081Z,1003.8
2017-03-05T11:00:06.557Z,1003.7
2017-03-05T11:01:09.545Z,1003.7
2017-03-05T11:02:11.995Z,1003.8
2017-03-05T11:03:14.956Z,1003.8
2017-03-05T11:04:17.665Z,1003.8
2017-03-05T11:05:20.110Z,1003.8
2017-03-05T11:06:23.055Z,1003.8
2017-03-05T11:07:25.369Z,1003.7
2017-03-05T11:08:28.323Z,1003.7
2017-03-05T11:09:31.044Z,1003.8
2017-03-05T11:10:33.497Z,1003.8
2017-03-05T11:11:36.455Z,1003.8
2017-03-05T11:12:38.924Z,1003.8
2017-03-05T11:13:41.396Z,1003.7
2017-03-05T11:14:44.596Z,1003.8
2017-03-05T11:15:47.077Z,1003.8
2017-03-05T11:16:49.531Z,1003.8
2017-03-05T11:17:52.496Z,1003.8
2017-03-05T11:18:54.962Z,1003.8
2017-03-05T11:19:57.679Z,1003.8
2017-03-05T11:22:03.039Z,1003.7
2017-03-05T11:23:05.523Z,1003.7
2017-03-05T11:24:08.475Z,1003.7
2017-03-05T11:25:11.174Z,1003.7
2017-03-05T11:26:13.645Z,1003.7
2017-03-05T11:27:16.421Z,1003.7
2017-03-05T11:28:18.883Z,1003.7
2017-03-05T11:29:21.858Z,1003.7
2017-03-05T11:30:24.955Z,1003.7
2017-03-05T11:31:27.406Z,1003.6
2017-03-05T11:32:29.862Z,1003.7
2017-03-05T11:33:32.308Z,1003.7
2017-03-05T11:34:35.253Z,1003.6
2017-03-05T11:35:37.976Z,1003.6
2017-03-05T11:36:40.436Z,1003.6
2017-03-05T11:37:43.380Z,1003.6
2017-03-05T11:38:45.830Z,1003.7
2017-03-05T11:39:48.793Z,1003.6
2017-03-05T11:40:51.560Z,1003.6
2017-03-05T11:41:54.014Z,1003.6
2017-03-05T11:42:56.975Z,1003.6
2017-03-05T11:43:59.445Z,1003.6
2017-03-05T11:45:02.398Z,1003.6
2017-03-05T11:46:04.940Z,1003.6
2017-03-05T11:47:07.738Z,1003.6
2017-03-05T11:48:10.219Z,1003.6
2017-03-05T11:49:13.009Z,1003.6
2017-03-05T11:50:15.800Z,1003.5
2017-03-05T11:51:18.511Z,1003.6
2017-03-05T11:52:20.953Z,1003.5
2017-03-05T11:53:23.762Z,1003.6
2017-03-05T11:54:26.220Z,1003.6
2017-03-05T11:55:29.012Z,1003.5
2017-03-05T11:56:32.281Z,1003.6
2017-03-05T11:57:34.267Z,1003.5
2017-03-05T11:58:37.217Z,1003.5
2017-03-05T11:59:39.671Z,1003.5
2017-03-05T12:00:42.624Z,1003.5
2017-03-05T12:01:45.340Z,1003.5
2017-03-05T12:02:48.140Z,1003.5
2017-03-05T12:03:50.633Z,1003.5
2017-03-05T12:04:53.584Z,1003.5
2017-03-05T12:05:56.038Z,1003.5
2017-03-05T12:06:58.769Z,1003.5
2017-03-05T12:08:01.221Z,1003.5
2017-03-05T12:09:04.177Z,1003.5
2017-03-05T12:10:06.634Z,1003.5
2017-03-05T12:12:12.301Z,1003.4
2017-03-05T12:13:15.082Z,1003.4
2017-03-05T12:14:17.524Z,1003.4
2017-03-05T12:15:20.305Z,1003.4
2017-03-05T12:16:22.786Z,1003.4
2017-03-05T12:17:26.020Z,1003.3
2017-03-05T12:18:28.477Z,1003.4
2017-03-05T12:19:30.923Z,1003.3
2017-03-05T12:20:33.876Z,1003.3
2017-03-05T12:21:36.333Z,1003.3
2017-03-05T12:22:39.366Z,1003.3
2017-03-05T12:24:44.727Z,1003.2
2017-03-05T12:25:47.172Z,1003.2
2017-03-05T12:26:50.146Z,1003.2
2017-03-05T12:27:52.844Z,1003.2
2017-03-05T12:29:58.237Z,1003.2
2017-03-05T12:32:03.605Z,1003.2
2017-03-05T12:35:11.648Z,1003.1
2017-03-05T12:36:14.107Z,1003.1
2017-03-05T12:37:17.076Z,1003.1
2017-03-05T12:38:19.544Z,1003.1
2017-03-05T12:39:22.505Z,1003.1
2017-03-05T12:40:25.337Z,1003
2017-03-05T12:41:27.778Z,1003.1
2017-03-05T12:42:30.224Z,1003
2017-03-05T12:43:33.079Z,1003.1
2017-03-05T12:44:36.045Z,1003.1
2017-03-05T12:46:41.711Z,1003.1
2017-03-05T12:47:43.668Z,1003.2
2017-03-05T12:48:46.633Z,1003.1
2017-03-05T12:49:49.088Z,1003.1
2017-03-05T12:50:52.043Z,1003.1
2017-03-05T12:51:54.739Z,1003.1
2017-03-05T12:52:57.184Z,1003.1
2017-03-05T12:55:02.887Z,1003.1
2017-03-05T12:56:05.525Z,1003.2
2017-03-05T12:57:08.295Z,1003.1
2017-03-05T12:58:10.766Z,1003.1
2017-03-05T12:59:13.563Z,1003.1
2017-03-05T13:00:16.440Z,1003.1
2017-03-05T13:02:21.933Z,1003
2017-03-05T13:03:24.395Z,1003
2017-03-05T13:04:27.344Z,1003
2017-03-05T13:05:29.807Z,1003
2017-03-05T13:06:32.604Z,1003
2017-03-05T13:07:35.640Z,1003
2017-03-05T13:08:38.094Z,1003
2017-03-05T13:09:40.558Z,1002.9
2017-03-05T13:10:43.552Z,1002.9
2017-03-05T13:11:46.009Z,1002.9
2017-03-05T13:12:48.794Z,1002.9
2017-03-05T13:13:51.265Z,1002.9
2017-03-05T13:14:54.256Z,1002.8
2017-03-05T13:15:56.728Z,1002.9
2017-03-05T13:16:59.681Z,1002.8
2017-03-05T13:18:02.396Z,1002.9
2017-03-05T13:19:04.868Z,1002.9
2017-03-05T13:21:10.251Z,1002.8
2017-03-05T13:22:13.072Z,1002.9
2017-03-05T13:23:15.797Z,1002.9
2017-03-05T13:24:18.247Z,1002.9
2017-03-05T13:25:21.194Z,1002.9
2017-03-05T13:26:23.645Z,1002.8
2017-03-05T13:27:26.594Z,1002.9
2017-03-05T13:28:29.296Z,1002.9
2017-03-05T13:29:31.765Z,1002.9
2017-03-05T13:30:34.557Z,1002.9
2017-03-05T13:31:37.502Z,1002.9
2017-03-05T13:32:39.953Z,1002.9
2017-03-05T13:33:43.167Z,1002.8
2017-03-05T13:34:45.615Z,1002.8
2017-03-05T13:35:48.064Z,1002.8
2017-03-05T13:36:50.857Z,1002.7
2017-03-05T13:37:53.302Z,1002.8
2017-03-05T13:38:56.402Z,1002.7
2017-03-05T13:39:58.873Z,1002.7
2017-03-05T13:41:01.822Z,1002.7
2017-03-05T13:42:04.293Z,1002.7
2017-03-05T13:43:07.245Z,1002.7
2017-03-05T13:44:09.944Z,1002.7
2017-03-05T13:45:12.399Z,1002.7
2017-03-05T13:46:15.185Z,1002.6
2017-03-05T13:47:17.637Z,1002.6
2017-03-05T13:48:20.585Z,1002.6
2017-03-05T13:49:23.309Z,1002.6
2017-03-05T13:50:25.759Z,1002.6
2017-03-05T13:51:28.715Z,1002.6
2017-03-05T13:52:31.235Z,1002.6